sensor_id;sensor_type;location;lat;lon;timestamp;P1;durP1;ratioP1;P2;durP2;ratioP2
9842;SDS011;4960;48.736;9.108;2022-11-15T00:00:44;5.50;;;3.73;;
9842;SDS011;4960;48.736;9.108;2022-11-15T00:03:12;5.03;;;4.10;;
9842;SDS011;4960;48.736;9.108;2022-11-15T00:05:39;4.70;;;3.53;;
9842;SDS011;4960;48.736;9.108;2022-11-15T00:08:07;3.77;;;3.33;;
9842;SDS011;4960;48.736;9.108;2022-11-15T00:10:35;4.47;;;3.47;;
9842;SDS011;4960;48.736;9.108;2022-11-15T00:13:04;3.97;;;3.30;;
9842;SDS011;4960;48.736;9.108;2022-11-15T00:15:31;3.50;;;3.20;;
9842;SDS011;4960;48.736;9.108;2022-11-15T00:17:58;5.53;;;3.27;;
9842;SDS011;4960;48.736;9.108;2022-11-15T00:20:25;3.70;;;2.80;;
9842;SDS011;4960;48.736;9.108;2022-11-15T00:22:52;3.10;;;2.80;;
9842;SDS011;4960;48.736;9.108;2022-11-15T00:25:20;3.43;;;2.87;;
9842;SDS011;4960;48.736;9.108;2022-11-15T00:27:48;3.37;;;2.93;;
9842;SDS011;4960;48.736;9.108;2022-11-15T00:30:16;3.40;;;2.80;;
9842;SDS011;4960;48.736;9.108;2022-11-15T00:32:44;3.67;;;2.83;;
9842;SDS011;4960;48.736;9.108;2022-11-15T00:35:11;3.17;;;2.50;;
9842;SDS011;4960;48.736;9.108;2022-11-15T00:37:38;3.93;;;2.80;;
9842;SDS011;4960;48.736;9.108;2022-11-15T00:40:05;3.97;;;2.67;;
9842;SDS011;4960;48.736;9.108;2022-11-15T00:42:33;4.23;;;3.00;;
9842;SDS011;4960;48.736;9.108;2022-11-15T00:45:01;2.93;;;2.37;;
9842;SDS011;4960;48.736;9.108;2022-11-15T00:47:28;4.13;;;2.30;;
9842;SDS011;4960;48.736;9.108;2022-11-15T00:49:55;2.77;;;2.00;;
9842;SDS011;4960;48.736;9.108;2022-11-15T00:52:23;2.57;;;2.23;;
9842;SDS011;4960;48.736;9.108;2022-11-15T00:54:50;3.37;;;2.10;;
9842;SDS011;4960;48.736;9.108;2022-11-15T00:57:17;3.70;;;2.63;;
9842;SDS011;4960;48.736;9.108;2022-11-15T00:59:44;3.37;;;2.30;;
9842;SDS011;4960;48.736;9.108;2022-11-15T01:02:13;3.77;;;2.60;;
9842;SDS011;4960;48.736;9.108;2022-11-15T01:04:40;2.30;;;2.10;;
9842;SDS011;4960;48.736;9.108;2022-11-15T01:07:07;3.33;;;2.73;;
9842;SDS011;4960;48.736;9.108;2022-11-15T01:09:34;2.57;;;2.23;;
9842;SDS011;4960;48.736;9.108;2022-11-15T01:12:01;4.00;;;1.80;;
9842;SDS011;4960;48.736;9.108;2022-11-15T01:14:28;3.70;;;2.30;;
9842;SDS011;4960;48.736;9.108;2022-11-15T01:16:56;2.90;;;2.23;;
9842;SDS011;4960;48.736;9.108;2022-11-15T01:19:24;4.73;;;2.10;;
9842;SDS011;4960;48.736;9.108;2022-11-15T01:21:51;3.53;;;2.20;;
9842;SDS011;4960;48.736;9.108;2022-11-15T01:24:18;2.33;;;2.10;;
9842;SDS011;4960;48.736;9.108;2022-11-15T01:26:46;2.33;;;1.90;;
9842;SDS011;4960;48.736;9.108;2022-11-15T01:29:13;3.90;;;2.10;;
9842;SDS011;4960;48.736;9.108;2022-11-15T01:31:40;2.00;;;1.90;;
9842;SDS011;4960;48.736;9.108;2022-11-15T01:34:07;2.33;;;1.70;;
9842;SDS011;4960;48.736;9.108;2022-11-15T01:36:36;1.77;;;1.63;;
9842;SDS011;4960;48.736;9.108;2022-11-15T01:39:03;2.27;;;2.07;;
9842;SDS011;4960;48.736;9.108;2022-11-15T01:41:31;2.57;;;2.10;;
9842;SDS011;4960;48.736;9.108;2022-11-15T01:46:40;3.10;;;2.37;;
9842;SDS011;4960;48.736;9.108;2022-11-15T01:49:11;2.97;;;2.47;;
9842;SDS011;4960;48.736;9.108;2022-11-15T01:51:40;3.17;;;2.00;;
9842;SDS011;4960;48.736;9.108;2022-11-15T01:54:08;3.30;;;2.20;;
9842;SDS011;4960;48.736;9.108;2022-11-15T01:56:38;4.90;;;2.17;;
9842;SDS011;4960;48.736;9.108;2022-11-15T01:59:06;3.43;;;2.33;;
9842;SDS011;4960;48.736;9.108;2022-11-15T02:01:34;2.87;;;2.40;;
9842;SDS011;4960;48.736;9.108;2022-11-15T02:04:04;2.83;;;2.40;;
9842;SDS011;4960;48.736;9.108;2022-11-15T02:06:32;6.50;;;2.60;;
9842;SDS011;4960;48.736;9.108;2022-11-15T02:09:02;3.07;;;2.60;;
9842;SDS011;4960;48.736;9.108;2022-11-15T02:11:29;5.90;;;2.40;;
9842;SDS011;4960;48.736;9.108;2022-11-15T02:13:56;3.90;;;2.60;;
9842;SDS011;4960;48.736;9.108;2022-11-15T02:16:26;3.93;;;2.77;;
9842;SDS011;4960;48.736;9.108;2022-11-15T02:18:57;2.87;;;2.30;;
9842;SDS011;4960;48.736;9.108;2022-11-15T02:21:28;4.17;;;2.73;;
9842;SDS011;4960;48.736;9.108;2022-11-15T02:27:08;2.57;;;2.30;;
9842;SDS011;4960;48.736;9.108;2022-11-15T02:29:45;2.63;;;2.43;;
9842;SDS011;4960;48.736;9.108;2022-11-15T02:32:18;3.43;;;2.50;;
9842;SDS011;4960;48.736;9.108;2022-11-15T02:34:48;4.10;;;2.57;;
9842;SDS011;4960;48.736;9.108;2022-11-15T02:37:20;7.17;;;2.63;;
9842;SDS011;4960;48.736;9.108;2022-11-15T02:39:49;4.70;;;2.47;;
9842;SDS011;4960;48.736;9.108;2022-11-15T02:42:19;5.23;;;2.50;;
9842;SDS011;4960;48.736;9.108;2022-11-15T02:45:06;2.57;;;2.30;;
9842;SDS011;4960;48.736;9.108;2022-11-15T02:47:37;6.47;;;2.73;;
9842;SDS011;4960;48.736;9.108;2022-11-15T02:50:08;2.63;;;2.43;;
9842;SDS011;4960;48.736;9.108;2022-11-15T02:52:36;3.37;;;2.50;;
9842;SDS011;4960;48.736;9.108;2022-11-15T02:55:04;4.43;;;2.80;;
9842;SDS011;4960;48.736;9.108;2022-11-15T02:57:35;3.07;;;2.37;;
9842;SDS011;4960;48.736;9.108;2022-11-15T03:00:06;5.00;;;2.37;;
9842;SDS011;4960;48.736;9.108;2022-11-15T03:02:50;3.30;;;2.23;;
9842;SDS011;4960;48.736;9.108;2022-11-15T03:05:23;5.47;;;2.33;;
9842;SDS011;4960;48.736;9.108;2022-11-15T03:07:53;3.43;;;2.33;;
9842;SDS011;4960;48.736;9.108;2022-11-15T03:10:22;4.30;;;2.40;;
9842;SDS011;4960;48.736;9.108;2022-11-15T03:12:54;2.33;;;2.13;;
9842;SDS011;4960;48.736;9.108;2022-11-15T03:15:24;6.03;;;2.73;;
9842;SDS011;4960;48.736;9.108;2022-11-15T03:17:57;3.50;;;2.20;;
9842;SDS011;4960;48.736;9.108;2022-11-15T03:20:25;4.60;;;2.30;;
9842;SDS011;4960;48.736;9.108;2022-11-15T03:22:54;3.17;;;2.20;;
9842;SDS011;4960;48.736;9.108;2022-11-15T03:25:24;4.47;;;2.40;;
9842;SDS011;4960;48.736;9.108;2022-11-15T03:27:54;2.57;;;2.20;;
9842;SDS011;4960;48.736;9.108;2022-11-15T03:30:22;3.03;;;2.47;;
9842;SDS011;4960;48.736;9.108;2022-11-15T03:32:50;2.90;;;2.40;;
9842;SDS011;4960;48.736;9.108;2022-11-15T03:35:20;5.03;;;2.73;;
9842;SDS011;4960;48.736;9.108;2022-11-15T03:37:49;2.60;;;2.40;;
9842;SDS011;4960;48.736;9.108;2022-11-15T03:40:18;4.53;;;3.03;;
9842;SDS011;4960;48.736;9.108;2022-11-15T03:42:49;4.07;;;2.80;;
9842;SDS011;4960;48.736;9.108;2022-11-15T03:45:22;4.97;;;2.87;;
9842;SDS011;4960;48.736;9.108;2022-11-15T03:47:51;3.33;;;2.67;;
9842;SDS011;4960;48.736;9.108;2022-11-15T03:50:22;3.90;;;2.43;;
9842;SDS011;4960;48.736;9.108;2022-11-15T03:52:50;4.93;;;2.50;;
9842;SDS011;4960;48.736;9.108;2022-11-15T03:55:18;4.33;;;3.00;;
9842;SDS011;4960;48.736;9.108;2022-11-15T03:57:47;3.70;;;2.80;;
9842;SDS011;4960;48.736;9.108;2022-11-15T04:00:15;3.40;;;2.23;;
9842;SDS011;4960;48.736;9.108;2022-11-15T04:02:42;5.83;;;3.00;;
9842;SDS011;4960;48.736;9.108;2022-11-15T04:05:09;4.20;;;3.13;;
9842;SDS011;4960;48.736;9.108;2022-11-15T04:07:38;4.60;;;2.80;;
9842;SDS011;4960;48.736;9.108;2022-11-15T04:10:05;6.40;;;2.80;;
9842;SDS011;4960;48.736;9.108;2022-11-15T04:12:33;4.77;;;3.03;;
9842;SDS011;4960;48.736;9.108;2022-11-15T04:15:02;5.37;;;2.50;;
9842;SDS011;4960;48.736;9.108;2022-11-15T04:17:33;3.33;;;2.57;;
9842;SDS011;4960;48.736;9.108;2022-11-15T04:20:00;4.17;;;2.93;;
9842;SDS011;4960;48.736;9.108;2022-11-15T04:22:46;4.47;;;2.33;;
9842;SDS011;4960;48.736;9.108;2022-11-15T04:25:31;4.23;;;2.47;;
9842;SDS011;4960;48.736;9.108;2022-11-15T04:27:58;3.20;;;2.60;;
9842;SDS011;4960;48.736;9.108;2022-11-15T04:30:25;4.00;;;2.50;;
9842;SDS011;4960;48.736;9.108;2022-11-15T04:32:52;3.87;;;2.47;;
9842;SDS011;4960;48.736;9.108;2022-11-15T04:35:19;6.43;;;2.40;;
9842;SDS011;4960;48.736;9.108;2022-11-15T04:37:48;3.60;;;2.43;;
9842;SDS011;4960;48.736;9.108;2022-11-15T04:40:14;6.20;;;2.60;;
9842;SDS011;4960;48.736;9.108;2022-11-15T04:42:41;5.27;;;2.60;;
9842;SDS011;4960;48.736;9.108;2022-11-15T04:45:09;4.23;;;2.30;;
9842;SDS011;4960;48.736;9.108;2022-11-15T04:47:36;2.57;;;2.33;;
9842;SDS011;4960;48.736;9.108;2022-11-15T04:50:04;4.00;;;2.20;;
9842;SDS011;4960;48.736;9.108;2022-11-15T04:52:31;5.33;;;2.30;;
9842;SDS011;4960;48.736;9.108;2022-11-15T04:54:59;3.87;;;3.00;;
9842;SDS011;4960;48.736;9.108;2022-11-15T04:57:26;3.40;;;2.40;;
9842;SDS011;4960;48.736;9.108;2022-11-15T04:59:54;3.73;;;2.23;;
9842;SDS011;4960;48.736;9.108;2022-11-15T05:02:21;3.77;;;2.30;;
9842;SDS011;4960;48.736;9.108;2022-11-15T05:04:48;3.93;;;2.70;;
9842;SDS011;4960;48.736;9.108;2022-11-15T05:07:14;5.30;;;2.33;;
9842;SDS011;4960;48.736;9.108;2022-11-15T05:09:41;2.97;;;2.50;;
9842;SDS011;4960;48.736;9.108;2022-11-15T05:12:10;2.83;;;2.00;;
9842;SDS011;4960;48.736;9.108;2022-11-15T05:14:37;2.40;;;2.20;;
9842;SDS011;4960;48.736;9.108;2022-11-15T05:17:04;3.17;;;2.37;;
9842;SDS011;4960;48.736;9.108;2022-11-15T05:19:31;4.23;;;2.30;;
9842;SDS011;4960;48.736;9.108;2022-11-15T05:21:58;3.80;;;2.63;;
9842;SDS011;4960;48.736;9.108;2022-11-15T05:24:25;2.47;;;2.27;;
9842;SDS011;4960;48.736;9.108;2022-11-15T05:26:53;2.87;;;2.37;;
9842;SDS011;4960;48.736;9.108;2022-11-15T05:29:21;2.83;;;2.40;;
9842;SDS011;4960;48.736;9.108;2022-11-15T05:31:48;3.37;;;2.40;;
9842;SDS011;4960;48.736;9.108;2022-11-15T05:34:16;6.23;;;2.70;;
9842;SDS011;4960;48.736;9.108;2022-11-15T05:36:43;3.03;;;2.00;;
9842;SDS011;4960;48.736;9.108;2022-11-15T05:39:10;2.50;;;2.30;;
9842;SDS011;4960;48.736;9.108;2022-11-15T05:41:39;5.30;;;2.10;;
9842;SDS011;4960;48.736;9.108;2022-11-15T05:44:09;2.50;;;2.30;;
9842;SDS011;4960;48.736;9.108;2022-11-15T05:46:38;2.33;;;2.13;;
9842;SDS011;4960;48.736;9.108;2022-11-15T05:49:06;5.27;;;2.70;;
9842;SDS011;4960;48.736;9.108;2022-11-15T05:51:37;5.77;;;2.80;;
9842;SDS011;4960;48.736;9.108;2022-11-15T05:54:04;3.33;;;2.60;;
9842;SDS011;4960;48.736;9.108;2022-11-15T05:56:31;2.50;;;2.30;;
9842;SDS011;4960;48.736;9.108;2022-11-15T05:58:58;3.93;;;3.00;;
9842;SDS011;4960;48.736;9.108;2022-11-15T06:01:26;3.17;;;2.47;;
9842;SDS011;4960;48.736;9.108;2022-11-15T06:03:54;3.27;;;2.93;;
9842;SDS011;4960;48.736;9.108;2022-11-15T06:06:21;3.40;;;2.57;;
9842;SDS011;4960;48.736;9.108;2022-11-15T06:08:49;3.20;;;2.90;;
9842;SDS011;4960;48.736;9.108;2022-11-15T06:11:16;3.70;;;3.00;;
9842;SDS011;4960;48.736;9.108;2022-11-15T06:13:43;6.07;;;3.00;;
9842;SDS011;4960;48.736;9.108;2022-11-15T06:16:10;2.97;;;2.67;;
9842;SDS011;4960;48.736;9.108;2022-11-15T06:18:37;4.63;;;2.57;;
9842;SDS011;4960;48.736;9.108;2022-11-15T06:21:06;2.63;;;2.43;;
9842;SDS011;4960;48.736;9.108;2022-11-15T06:23:33;3.77;;;2.57;;
9842;SDS011;4960;48.736;9.108;2022-11-15T06:26:01;3.50;;;3.00;;
9842;SDS011;4960;48.736;9.108;2022-11-15T06:28:28;5.17;;;2.90;;
9842;SDS011;4960;48.736;9.108;2022-11-15T06:30:56;4.70;;;3.17;;
9842;SDS011;4960;48.736;9.108;2022-11-15T06:33:23;4.00;;;2.50;;
9842;SDS011;4960;48.736;9.108;2022-11-15T06:35:50;2.80;;;2.57;;
9842;SDS011;4960;48.736;9.108;2022-11-15T06:38:19;2.87;;;2.57;;
9842;SDS011;4960;48.736;9.108;2022-11-15T06:40:46;3.53;;;2.43;;
9842;SDS011;4960;48.736;9.108;2022-11-15T06:43:13;4.70;;;2.70;;
9842;SDS011;4960;48.736;9.108;2022-11-15T06:45:40;4.23;;;2.47;;
9842;SDS011;4960;48.736;9.108;2022-11-15T06:48:07;3.90;;;3.00;;
9842;SDS011;4960;48.736;9.108;2022-11-15T06:50:34;4.17;;;2.93;;
9842;SDS011;4960;48.736;9.108;2022-11-15T06:53:02;3.10;;;2.80;;
9842;SDS011;4960;48.736;9.108;2022-11-15T06:55:30;4.97;;;2.60;;
9842;SDS011;4960;48.736;9.108;2022-11-15T06:57:58;4.73;;;2.97;;
9842;SDS011;4960;48.736;9.108;2022-11-15T07:00:25;3.20;;;2.80;;
9842;SDS011;4960;48.736;9.108;2022-11-15T07:02:52;5.83;;;3.00;;
9842;SDS011;4960;48.736;9.108;2022-11-15T07:05:19;5.63;;;3.57;;
9842;SDS011;4960;48.736;9.108;2022-11-15T07:07:50;8.07;;;3.27;;
9842;SDS011;4960;48.736;9.108;2022-11-15T07:10:18;4.53;;;3.67;;
9842;SDS011;4960;48.736;9.108;2022-11-15T07:12:47;10.40;;;3.67;;
9842;SDS011;4960;48.736;9.108;2022-11-15T07:15:15;5.57;;;3.30;;
9842;SDS011;4960;48.736;9.108;2022-11-15T07:17:42;8.33;;;4.07;;
9842;SDS011;4960;48.736;9.108;2022-11-15T07:20:09;5.77;;;3.77;;
9842;SDS011;4960;48.736;9.108;2022-11-15T07:22:38;4.90;;;3.70;;
9842;SDS011;4960;48.736;9.108;2022-11-15T07:25:05;6.77;;;3.97;;
9842;SDS011;4960;48.736;9.108;2022-11-15T07:27:33;6.30;;;3.27;;
9842;SDS011;4960;48.736;9.108;2022-11-15T07:30:01;6.93;;;3.70;;
9842;SDS011;4960;48.736;9.108;2022-11-15T07:32:28;9.00;;;3.50;;
9842;SDS011;4960;48.736;9.108;2022-11-15T07:34:55;9.23;;;3.63;;
9842;SDS011;4960;48.736;9.108;2022-11-15T07:37:23;6.17;;;3.70;;
9842;SDS011;4960;48.736;9.108;2022-11-15T07:39:50;8.40;;;3.57;;
9842;SDS011;4960;48.736;9.108;2022-11-15T07:42:17;6.23;;;3.07;;
9842;SDS011;4960;48.736;9.108;2022-11-15T07:45:03;6.07;;;3.20;;
9842;SDS011;4960;48.736;9.108;2022-11-15T07:47:30;5.57;;;3.57;;
9842;SDS011;4960;48.736;9.108;2022-11-15T07:49:57;5.23;;;3.33;;
9842;SDS011;4960;48.736;9.108;2022-11-15T07:52:25;8.30;;;3.07;;
9842;SDS011;4960;48.736;9.108;2022-11-15T07:54:52;8.27;;;3.30;;
9842;SDS011;4960;48.736;9.108;2022-11-15T07:57:19;6.43;;;3.00;;
9842;SDS011;4960;48.736;9.108;2022-11-15T07:59:46;5.73;;;2.77;;
9842;SDS011;4960;48.736;9.108;2022-11-15T08:02:14;7.03;;;3.97;;
9842;SDS011;4960;48.736;9.108;2022-11-15T08:04:42;7.07;;;2.93;;
9842;SDS011;4960;48.736;9.108;2022-11-15T08:07:10;4.07;;;3.10;;
9842;SDS011;4960;48.736;9.108;2022-11-15T08:09:37;7.77;;;2.97;;
9842;SDS011;4960;48.736;9.108;2022-11-15T08:12:04;4.87;;;2.80;;
9842;SDS011;4960;48.736;9.108;2022-11-15T08:14:31;3.87;;;2.90;;
9842;SDS011;4960;48.736;9.108;2022-11-15T08:16:59;4.03;;;2.90;;
9842;SDS011;4960;48.736;9.108;2022-11-15T08:19:27;7.50;;;2.83;;
9842;SDS011;4960;48.736;9.108;2022-11-15T08:21:54;8.43;;;2.70;;
9842;SDS011;4960;48.736;9.108;2022-11-15T08:24:21;4.13;;;2.43;;
9842;SDS011;4960;48.736;9.108;2022-11-15T08:26:48;4.17;;;2.33;;
9842;SDS011;4960;48.736;9.108;2022-11-15T08:29:16;4.43;;;2.53;;
9842;SDS011;4960;48.736;9.108;2022-11-15T08:31:43;3.60;;;2.30;;
9842;SDS011;4960;48.736;9.108;2022-11-15T08:34:10;4.63;;;2.57;;
9842;SDS011;4960;48.736;9.108;2022-11-15T08:36:39;2.60;;;2.40;;
9842;SDS011;4960;48.736;9.108;2022-11-15T08:39:06;2.77;;;1.73;;
9842;SDS011;4960;48.736;9.108;2022-11-15T08:41:33;2.57;;;2.00;;
9842;SDS011;4960;48.736;9.108;2022-11-15T08:44:01;3.90;;;2.07;;
9842;SDS011;4960;48.736;9.108;2022-11-15T08:46:29;2.80;;;1.83;;
9842;SDS011;4960;48.736;9.108;2022-11-15T08:48:56;5.00;;;1.97;;
9842;SDS011;4960;48.736;9.108;2022-11-15T08:51:23;6.20;;;2.07;;
9842;SDS011;4960;48.736;9.108;2022-11-15T08:53:51;2.90;;;2.07;;
9842;SDS011;4960;48.736;9.108;2022-11-15T08:56:19;2.93;;;2.13;;
9842;SDS011;4960;48.736;9.108;2022-11-15T08:58:46;3.80;;;1.83;;
9842;SDS011;4960;48.736;9.108;2022-11-15T09:01:14;4.30;;;2.23;;
9842;SDS011;4960;48.736;9.108;2022-11-15T09:03:42;4.70;;;1.90;;
9842;SDS011;4960;48.736;9.108;2022-11-15T09:06:09;4.43;;;2.13;;
9842;SDS011;4960;48.736;9.108;2022-11-15T09:08:37;2.47;;;1.70;;
9842;SDS011;4960;48.736;9.108;2022-11-15T09:11:06;2.07;;;1.80;;
9842;SDS011;4960;48.736;9.108;2022-11-15T09:13:33;2.30;;;1.80;;
9842;SDS011;4960;48.736;9.108;2022-11-15T09:16:02;4.17;;;1.50;;
9842;SDS011;4960;48.736;9.108;2022-11-15T09:18:30;2.13;;;1.30;;
9842;SDS011;4960;48.736;9.108;2022-11-15T09:20:58;2.13;;;1.77;;
9842;SDS011;4960;48.736;9.108;2022-11-15T09:23:25;1.53;;;1.30;;
9842;SDS011;4960;48.736;9.108;2022-11-15T09:25:57;1.30;;;1.20;;
9842;SDS011;4960;48.736;9.108;2022-11-15T09:28:26;2.30;;;1.17;;
9842;SDS011;4960;48.736;9.108;2022-11-15T09:30:55;4.33;;;1.40;;
9842;SDS011;4960;48.736;9.108;2022-11-15T09:33:22;2.03;;;1.13;;
9842;SDS011;4960;48.736;9.108;2022-11-15T09:35:49;1.97;;;1.30;;
9842;SDS011;4960;48.736;9.108;2022-11-15T09:38:16;3.23;;;1.30;;
9842;SDS011;4960;48.736;9.108;2022-11-15T09:40:44;5.60;;;1.57;;
9842;SDS011;4960;48.736;9.108;2022-11-15T09:46:03;7.13;;;1.70;;
9842;SDS011;4960;48.736;9.108;2022-11-15T09:48:37;4.13;;;1.60;;
9842;SDS011;4960;48.736;9.108;2022-11-15T09:51:06;3.47;;;1.70;;
9842;SDS011;4960;48.736;9.108;2022-11-15T09:53:40;3.50;;;1.53;;
9842;SDS011;4960;48.736;9.108;2022-11-15T09:56:12;1.60;;;1.50;;
9842;SDS011;4960;48.736;9.108;2022-11-15T09:58:43;2.40;;;1.57;;
9842;SDS011;4960;48.736;9.108;2022-11-15T10:01:14;2.43;;;1.40;;
9842;SDS011;4960;48.736;9.108;2022-11-15T10:03:43;2.73;;;1.30;;
9842;SDS011;4960;48.736;9.108;2022-11-15T10:06:14;1.30;;;1.17;;
9842;SDS011;4960;48.736;9.108;2022-11-15T10:08:50;2.33;;;1.30;;
9842;SDS011;4960;48.736;9.108;2022-11-15T10:11:20;1.33;;;1.23;;
9842;SDS011;4960;48.736;9.108;2022-11-15T10:13:48;1.93;;;1.30;;
9842;SDS011;4960;48.736;9.108;2022-11-15T10:16:24;2.80;;;1.40;;
9842;SDS011;4960;48.736;9.108;2022-11-15T10:18:56;2.30;;;1.20;;
9842;SDS011;4960;48.736;9.108;2022-11-15T10:21:29;2.47;;;1.30;;
9842;SDS011;4960;48.736;9.108;2022-11-15T10:23:57;3.37;;;1.43;;
9842;SDS011;4960;48.736;9.108;2022-11-15T10:26:25;1.57;;;1.20;;
9842;SDS011;4960;48.736;9.108;2022-11-15T10:28:53;2.50;;;1.53;;
9842;SDS011;4960;48.736;9.108;2022-11-15T10:31:21;4.27;;;1.57;;
9842;SDS011;4960;48.736;9.108;2022-11-15T10:33:50;1.70;;;1.40;;
9842;SDS011;4960;48.736;9.108;2022-11-15T10:36:21;2.87;;;1.50;;
9842;SDS011;4960;48.736;9.108;2022-11-15T10:38:54;2.27;;;1.50;;
9842;SDS011;4960;48.736;9.108;2022-11-15T10:41:22;5.03;;;2.17;;
9842;SDS011;4960;48.736;9.108;2022-11-15T10:44:01;2.57;;;2.07;;
9842;SDS011;4960;48.736;9.108;2022-11-15T10:46:28;3.50;;;1.80;;
9842;SDS011;4960;48.736;9.108;2022-11-15T10:49:02;1.70;;;1.47;;
9842;SDS011;4960;48.736;9.108;2022-11-15T10:51:40;1.93;;;1.50;;
9842;SDS011;4960;48.736;9.108;2022-11-15T10:54:07;2.53;;;1.80;;
9842;SDS011;4960;48.736;9.108;2022-11-15T10:56:37;2.00;;;1.80;;
9842;SDS011;4960;48.736;9.108;2022-11-15T10:59:07;3.07;;;2.20;;
9842;SDS011;4960;48.736;9.108;2022-11-15T11:01:45;3.00;;;1.60;;
9842;SDS011;4960;48.736;9.108;2022-11-15T11:04:14;2.27;;;1.60;;
9842;SDS011;4960;48.736;9.108;2022-11-15T11:06:47;5.37;;;2.00;;
9842;SDS011;4960;48.736;9.108;2022-11-15T11:09:27;5.00;;;2.00;;
9842;SDS011;4960;48.736;9.108;2022-11-15T11:11:55;5.07;;;2.57;;
9842;SDS011;4960;48.736;9.108;2022-11-15T11:14:22;4.77;;;2.23;;
9842;SDS011;4960;48.736;9.108;2022-11-15T11:16:52;3.63;;;1.93;;
9842;SDS011;4960;48.736;9.108;2022-11-15T11:19:30;2.53;;;1.90;;
9842;SDS011;4960;48.736;9.108;2022-11-15T11:22:01;3.03;;;1.90;;
9842;SDS011;4960;48.736;9.108;2022-11-15T11:24:32;2.33;;;1.80;;
9842;SDS011;4960;48.736;9.108;2022-11-15T11:27:08;2.43;;;1.80;;
9842;SDS011;4960;48.736;9.108;2022-11-15T11:29:42;2.67;;;1.80;;
9842;SDS011;4960;48.736;9.108;2022-11-15T11:32:17;3.10;;;2.07;;
9842;SDS011;4960;48.736;9.108;2022-11-15T11:34:50;3.23;;;1.83;;
9842;SDS011;4960;48.736;9.108;2022-11-15T11:37:23;4.53;;;1.90;;
9842;SDS011;4960;48.736;9.108;2022-11-15T11:39:57;2.70;;;1.97;;
9842;SDS011;4960;48.736;9.108;2022-11-15T11:42:26;4.77;;;1.70;;
9842;SDS011;4960;48.736;9.108;2022-11-15T11:44:59;4.17;;;2.83;;
9842;SDS011;4960;48.736;9.108;2022-11-15T11:47:28;2.93;;;2.50;;
9842;SDS011;4960;48.736;9.108;2022-11-15T11:50:00;2.80;;;1.80;;
9842;SDS011;4960;48.736;9.108;2022-11-15T11:52:29;4.27;;;2.53;;
9842;SDS011;4960;48.736;9.108;2022-11-15T11:54:59;2.70;;;2.10;;
9842;SDS011;4960;48.736;9.108;2022-11-15T11:57:32;2.10;;;1.87;;
9842;SDS011;4960;48.736;9.108;2022-11-15T12:00:01;2.23;;;1.40;;
9842;SDS011;4960;48.736;9.108;2022-11-15T12:02:30;3.20;;;1.33;;
9842;SDS011;4960;48.736;9.108;2022-11-15T12:05:03;5.20;;;1.90;;
9842;SDS011;4960;48.736;9.108;2022-11-15T12:07:32;2.40;;;1.50;;
9842;SDS011;4960;48.736;9.108;2022-11-15T12:10:02;2.03;;;1.13;;
9842;SDS011;4960;48.736;9.108;2022-11-15T12:12:31;1.17;;;0.90;;
9842;SDS011;4960;48.736;9.108;2022-11-15T12:15:02;0.80;;;0.70;;
9842;SDS011;4960;48.736;9.108;2022-11-15T12:17:30;2.57;;;1.73;;
9842;SDS011;4960;48.736;9.108;2022-11-15T12:19:58;4.47;;;1.60;;
9842;SDS011;4960;48.736;9.108;2022-11-15T12:22:36;2.93;;;1.87;;
9842;SDS011;4960;48.736;9.108;2022-11-15T12:25:05;1.33;;;1.13;;
9842;SDS011;4960;48.736;9.108;2022-11-15T12:27:35;1.20;;;1.00;;
9842;SDS011;4960;48.736;9.108;2022-11-15T12:30:07;1.80;;;1.30;;
9842;SDS011;4960;48.736;9.108;2022-11-15T12:32:36;3.47;;;1.33;;
9842;SDS011;4960;48.736;9.108;2022-11-15T12:35:05;1.20;;;0.83;;
9842;SDS011;4960;48.736;9.108;2022-11-15T12:37:44;5.10;;;1.20;;
9842;SDS011;4960;48.736;9.108;2022-11-15T12:40:17;1.47;;;1.13;;
9842;SDS011;4960;48.736;9.108;2022-11-15T12:42:57;1.77;;;1.23;;
9842;SDS011;4960;48.736;9.108;2022-11-15T12:45:25;3.60;;;1.60;;
9842;SDS011;4960;48.736;9.108;2022-11-15T12:47:52;1.60;;;1.33;;
9842;SDS011;4960;48.736;9.108;2022-11-15T12:55:58;2.80;;;1.60;;
9842;SDS011;4960;48.736;9.108;2022-11-15T12:58:41;1.40;;;1.30;;
9842;SDS011;4960;48.736;9.108;2022-11-15T13:01:08;1.40;;;1.30;;
9842;SDS011;4960;48.736;9.108;2022-11-15T13:03:36;3.60;;;1.30;;
9842;SDS011;4960;48.736;9.108;2022-11-15T13:06:39;2.37;;;1.33;;
9842;SDS011;4960;48.736;9.108;2022-11-15T13:11:49;3.07;;;1.40;;
9842;SDS011;4960;48.736;9.108;2022-11-15T13:17:23;1.60;;;1.40;;
9842;SDS011;4960;48.736;9.108;2022-11-15T13:19:52;1.50;;;1.30;;
9842;SDS011;4960;48.736;9.108;2022-11-15T13:22:23;1.80;;;1.30;;
9842;SDS011;4960;48.736;9.108;2022-11-15T13:25:14;2.37;;;1.50;;
9842;SDS011;4960;48.736;9.108;2022-11-15T13:27:44;1.50;;;1.40;;
9842;SDS011;4960;48.736;9.108;2022-11-15T13:30:23;3.17;;;1.67;;
9842;SDS011;4960;48.736;9.108;2022-11-15T13:32:50;2.03;;;1.10;;
9842;SDS011;4960;48.736;9.108;2022-11-15T13:35:19;3.03;;;1.10;;
9842;SDS011;4960;48.736;9.108;2022-11-15T13:37:48;1.63;;;1.53;;
9842;SDS011;4960;48.736;9.108;2022-11-15T13:40:20;3.13;;;1.40;;
9842;SDS011;4960;48.736;9.108;2022-11-15T13:42:47;2.73;;;1.33;;
9842;SDS011;4960;48.736;9.108;2022-11-15T13:45:15;3.73;;;1.27;;
9842;SDS011;4960;48.736;9.108;2022-11-15T13:47:43;1.53;;;1.37;;
9842;SDS011;4960;48.736;9.108;2022-11-15T13:50:10;2.00;;;1.33;;
9842;SDS011;4960;48.736;9.108;2022-11-15T13:52:38;2.57;;;1.43;;
9842;SDS011;4960;48.736;9.108;2022-11-15T13:55:10;1.57;;;1.30;;
9842;SDS011;4960;48.736;9.108;2022-11-15T13:57:41;4.40;;;1.20;;
9842;SDS011;4960;48.736;9.108;2022-11-15T14:00:24;1.60;;;1.50;;
9842;SDS011;4960;48.736;9.108;2022-11-15T14:02:51;1.73;;;1.40;;
9842;SDS011;4960;48.736;9.108;2022-11-15T14:05:19;2.10;;;1.87;;
9842;SDS011;4960;48.736;9.108;2022-11-15T14:07:52;3.97;;;2.20;;
9842;SDS011;4960;48.736;9.108;2022-11-15T14:10:25;5.50;;;2.47;;
9842;SDS011;4960;48.736;9.108;2022-11-15T14:12:54;6.00;;;2.93;;
9842;SDS011;4960;48.736;9.108;2022-11-15T14:15:26;5.43;;;3.50;;
9842;SDS011;4960;48.736;9.108;2022-11-15T14:17:54;8.33;;;3.93;;
9842;SDS011;4960;48.736;9.108;2022-11-15T14:20:28;9.63;;;3.53;;
9842;SDS011;4960;48.736;9.108;2022-11-15T14:22:56;9.27;;;4.33;;
9842;SDS011;4960;48.736;9.108;2022-11-15T14:25:24;8.97;;;4.70;;
9842;SDS011;4960;48.736;9.108;2022-11-15T14:28:12;7.97;;;4.20;;
9842;SDS011;4960;48.736;9.108;2022-11-15T14:30:41;11.20;;;4.93;;
9842;SDS011;4960;48.736;9.108;2022-11-15T14:33:17;9.80;;;4.83;;
9842;SDS011;4960;48.736;9.108;2022-11-15T14:35:45;11.53;;;5.07;;
9842;SDS011;4960;48.736;9.108;2022-11-15T14:38:12;10.23;;;4.47;;
9842;SDS011;4960;48.736;9.108;2022-11-15T14:40:39;9.20;;;5.60;;
9842;SDS011;4960;48.736;9.108;2022-11-15T14:43:07;9.47;;;6.07;;
9842;SDS011;4960;48.736;9.108;2022-11-15T14:45:36;14.57;;;8.50;;
9842;SDS011;4960;48.736;9.108;2022-11-15T14:48:04;8.50;;;5.40;;
9842;SDS011;4960;48.736;9.108;2022-11-15T14:50:31;12.90;;;5.43;;
9842;SDS011;4960;48.736;9.108;2022-11-15T14:52:59;6.93;;;4.67;;
9842;SDS011;4960;48.736;9.108;2022-11-15T14:55:27;9.50;;;5.17;;
9842;SDS011;4960;48.736;9.108;2022-11-15T14:57:54;11.83;;;7.20;;
9842;SDS011;4960;48.736;9.108;2022-11-15T15:00:22;12.77;;;6.97;;
9842;SDS011;4960;48.736;9.108;2022-11-15T15:02:51;12.13;;;6.90;;
9842;SDS011;4960;48.736;9.108;2022-11-15T15:05:19;12.33;;;7.23;;
9842;SDS011;4960;48.736;9.108;2022-11-15T15:07:47;12.53;;;7.10;;
9842;SDS011;4960;48.736;9.108;2022-11-15T15:10:14;14.60;;;7.67;;
9842;SDS011;4960;48.736;9.108;2022-11-15T15:12:42;14.03;;;6.70;;
9842;SDS011;4960;48.736;9.108;2022-11-15T15:15:12;15.30;;;7.40;;
9842;SDS011;4960;48.736;9.108;2022-11-15T15:17:40;14.57;;;6.80;;
9842;SDS011;4960;48.736;9.108;2022-11-15T15:20:08;13.00;;;6.17;;
9842;SDS011;4960;48.736;9.108;2022-11-15T15:22:36;12.57;;;6.03;;
9842;SDS011;4960;48.736;9.108;2022-11-15T15:25:10;10.17;;;5.70;;
9842;SDS011;4960;48.736;9.108;2022-11-15T15:27:45;10.50;;;5.73;;
9842;SDS011;4960;48.736;9.108;2022-11-15T15:30:13;10.20;;;6.50;;
9842;SDS011;4960;48.736;9.108;2022-11-15T15:32:40;11.93;;;6.50;;
9842;SDS011;4960;48.736;9.108;2022-11-15T15:35:10;16.60;;;6.17;;
9842;SDS011;4960;48.736;9.108;2022-11-15T15:37:37;8.70;;;5.53;;
9842;SDS011;4960;48.736;9.108;2022-11-15T15:40:08;8.23;;;5.13;;
9842;SDS011;4960;48.736;9.108;2022-11-15T15:42:38;10.43;;;4.43;;
9842;SDS011;4960;48.736;9.108;2022-11-15T15:45:05;8.33;;;4.97;;
9842;SDS011;4960;48.736;9.108;2022-11-15T15:47:33;8.30;;;4.93;;